Time;durP1;ratioP1;P1;durP2;ratioP2;P2;SDS_P1;SDS_P2;PMS_P1;PMS_P2;Temp;Humidity;BMP_temperature;BMP_pressure;BME280_temperature;BME280_humidity;BME280_pressure;Samples;Min_cycle;Max_cycle;Signal;HPM_P1;HPM_P2
2022/08/26 00:01:23;;;;;;;26.73;21.05;;;21.60;99.90;;;;;;5064857;28;20080;-55
2022/08/26 00:03:49;;;;;;;22.35;20.13;;;21.60;99.90;;;;;;5065100;28;20055;-57
2022/08/26 00:06:15;;;;;;;26.15;21.70;;;21.50;99.90;;;;;;5069095;28;20040;-55
2022/08/26 00:08:42;;;;;;;26.80;20.02;;;21.50;99.90;;;;;;5069462;28;20178;-61
2022/08/26 00:11:07;;;;;;;24.42;20.70;;;21.50;99.90;;;;;;5069532;28;20048;-61
2022/08/26 00:13:34;;;;;;;22.88;19.48;;;21.40;99.90;;;;;;5068968;28;20059;-61
2022/08/26 00:16:00;;;;;;;20.15;17.77;;;21.40;99.90;;;;;;5069425;28;20269;-62
2022/08/26 00:18:26;;;;;;;23.20;18.85;;;21.40;99.90;;;;;;5060283;28;20495;-61
2022/08/26 00:20:52;;;;;;;23.08;17.65;;;21.40;99.90;;;;;;5049995;28;20052;-61
2022/08/26 00:23:18;;;;;;;19.83;17.55;;;21.40;99.90;;;;;;5057086;28;20040;-61
2022/08/26 00:25:44;;;;;;;24.30;20.52;;;21.30;99.90;;;;;;5069317;28;20059;-61
2022/08/26 00:28:09;;;;;;;25.30;21.95;;;21.30;99.90;;;;;;5069060;28;20048;-60
2022/08/26 00:30:35;;;;;;;23.40;20.75;;;21.30;99.90;;;;;;5068883;28;20053;-61
2022/08/26 00:33:02;;;;;;;24.58;21.15;;;21.30;99.90;;;;;;5069450;28;20052;-58
2022/08/26 00:35:28;;;;;;;24.35;19.83;;;21.20;99.90;;;;;;5077126;28;20044;-57
2022/08/26 00:37:55;;;;;;;24.10;20.67;;;21.20;99.90;;;;;;5070636;28;20452;-58
2022/08/26 00:40:28;;;;;;;25.75;21.05;;;21.20;99.90;;;;;;5069142;28;20040;-58
2022/08/26 00:42:54;;;;;;;22.90;18.80;;;21.20;99.90;;;;;;5056620;28;20123;-58
2022/08/26 00:45:21;;;;;;;24.27;20.00;;;21.20;99.90;;;;;;5047435;28;20050;-58
2022/08/26 00:47:51;;;;;;;23.30;20.15;;;21.20;99.90;;;;;;5047000;28;20053;-58
2022/08/26 00:50:30;;;;;;;24.02;19.25;;;21.10;99.90;;;;;;5048739;28;20510;-56
2022/08/26 00:52:58;;;;;;;22.55;19.13;;;21.10;99.90;;;;;;5049230;28;20511;-57
2022/08/26 00:55:34;;;;;;;26.73;21.52;;;21.00;99.90;;;;;;5048804;28;20052;-57
2022/08/26 00:58:01;;;;;;;26.45;20.92;;;21.00;99.90;;;;;;5048733;28;20056;-59
2022/08/26 01:00:30;;;;;;;25.08;21.10;;;21.00;99.90;;;;;;5048561;28;20052;-55
2022/08/26 01:03:00;;;;;;;26.83;21.58;;;20.90;99.90;;;;;;5055821;28;20056;-61
2022/08/26 01:05:29;;;;;;;26.15;21.60;;;20.80;99.90;;;;;;5066893;28;20059;-57
2022/08/26 01:07:55;;;;;;;23.55;18.52;;;20.80;99.90;;;;;;5068311;28;20087;-56
2022/08/26 01:10:25;;;;;;;27.88;20.77;;;20.80;99.90;;;;;;5067022;28;20135;-56
2022/08/26 01:12:59;;;;;;;28.70;21.13;;;20.70;99.90;;;;;;5067991;28;20048;-55
2022/08/26 01:15:28;;;;;;;;;;;20.70;99.90;;;;;;5067180;28;20147;-55
2022/08/26 01:17:54;;;;;;;31.30;19.73;;;20.70;99.90;;;;;;5063839;28;19935;-56
2022/08/26 01:20:40;;;;;;;29.10;20.92;;;20.60;99.90;;;;;;5061895;28;20048;-55
2022/08/26 01:23:09;;;;;;;26.42;19.52;;;20.70;99.90;;;;;;5026572;28;20075;-55
2022/08/26 01:25:41;;;;;;;22.45;19.63;;;20.60;99.90;;;;;;5068139;28;20059;-56
2022/08/26 01:28:13;;;;;;;31.33;21.40;;;20.70;99.90;;;;;;5068013;28;20418;-58
2022/08/26 01:30:40;;;;;;;26.25;20.73;;;20.60;99.90;;;;;;5067794;28;20044;-56
2022/08/26 01:33:11;;;;;;;25.00;20.77;;;20.60;99.90;;;;;;5068106;28;20051;-60
2022/08/26 01:35:37;;;;;;;29.00;21.27;;;20.60;99.90;;;;;;5077374;28;20094;-58
2022/08/26 01:38:03;;;;;;;32.03;22.00;;;20.60;99.90;;;;;;5068592;28;20049;-55
2022/08/26 01:40:35;;;;;;;30.70;20.85;;;20.60;99.90;;;;;;5067427;28;20286;-59
2022/08/26 01:43:03;;;;;;;27.27;20.02;;;20.60;99.90;;;;;;5048457;28;20049;-56
2022/08/26 01:45:32;;;;;;;27.38;19.25;;;20.60;99.90;;;;;;5047690;28;20080;-56
2022/08/26 01:48:02;;;;;;;23.40;18.15;;;20.60;99.90;;;;;;5047643;28;20114;-57
2022/08/26 01:50:31;;;;;;;34.70;22.70;;;20.60;99.90;;;;;;5047522;28;20075;-55
2022/08/26 01:53:00;;;;;;;26.27;21.67;;;20.60;99.90;;;;;;5047392;28;20044;-55
2022/08/26 01:55:27;;;;;;;28.25;18.88;;;20.50;99.90;;;;;;5047841;28;20106;-55
2022/08/26 01:57:55;;;;;;;34.30;20.02;;;20.50;99.90;;;;;;5047270;28;20040;-57
2022/08/26 02:00:22;;;;;;;32.33;21.95;;;20.50;99.90;;;;;;5047593;28;20507;-56
2022/08/26 02:03:15;;;;;;;34.53;22.83;;;20.50;99.90;;;;;;5046984;28;20048;-55
2022/08/26 02:05:36;;;;;;;29.67;21.95;;;20.50;99.90;;;;;;5050186;28;20117;-55
2022/08/26 02:08:03;;;;;;;34.88;21.50;;;20.50;99.90;;;;;;5050962;28;20041;-55
2022/08/26 02:10:28;;;;;;;29.83;20.48;;;20.50;99.90;;;;;;5045276;28;20910;-56
2022/08/26 02:12:54;;;;;;;27.50;19.50;;;20.50;99.90;;;;;;5047146;28;20053;-55
2022/08/26 02:15:20;;;;;;;30.77;20.13;;;20.60;99.90;;;;;;5047098;28;20774;-56
2022/08/26 02:17:46;;;;;;;28.30;20.80;;;20.50;99.90;;;;;;5050580;28;20075;-56
2022/08/26 02:20:17;;;;;;;30.80;20.10;;;20.50;99.90;;;;;;5066633;28;20045;-55
2022/08/26 02:22:43;;;;;;;32.88;21.05;;;20.60;99.90;;;;;;5067208;28;20049;-55
2022/08/26 02:25:29;;;;;;;33.70;18.95;;;20.50;99.90;;;;;;5066765;28;20110;-56
2022/08/26 02:27:55;;;;;;;30.58;22.10;;;20.60;99.90;;;;;;5052674;28;20071;-55
2022/08/26 02:30:30;;;;;;;26.42;21.17;;;20.50;99.90;;;;;;5066937;28;20510;-55
2022/08/26 02:33:03;;;;;;;35.92;21.77;;;20.50;99.90;;;;;;5066926;28;20152;-55
2022/08/26 02:35:31;;;;;;;32.57;21.03;;;20.50;99.90;;;;;;5075120;28;20055;-55
2022/08/26 02:37:57;;;;;;;30.05;19.70;;;20.50;99.90;;;;;;5068544;28;20063;-55
2022/08/26 02:40:27;;;;;;;35.30;21.85;;;20.50;99.90;;;;;;5067057;28;20129;-55
2022/08/26 02:42:54;;;;;;;40.50;22.25;;;20.50;99.90;;;;;;5066741;28;20055;-55
2022/08/26 02:45:19;;;;;;;35.95;19.90;;;20.50;99.90;;;;;;5066832;28;20065;-55
2022/08/26 02:47:46;;;;;;;31.27;20.02;;;20.50;99.90;;;;;;5066423;28;20067;-60
2022/08/26 02:50:13;;;;;;;28.70;19.65;;;20.50;99.90;;;;;;5066766;28;20072;-55
2022/08/26 02:52:38;;;;;;;29.00;18.30;;;20.50;99.90;;;;;;5066763;28;20049;-55
2022/08/26 02:55:05;;;;;;;26.13;18.40;;;20.50;99.90;;;;;;5067064;28;20055;-58
2022/08/26 02:57:31;;;;;;;35.92;21.75;;;20.50;99.90;;;;;;5066248;28;20131;-57
2022/08/26 02:59:56;;;;;;;30.23;19.83;;;20.50;99.90;;;;;;5066557;28;20166;-55
2022/08/26 03:02:22;;;;;;;30.02;19.35;;;20.50;99.90;;;;;;5066629;28;20138;-55
2022/08/26 03:04:48;;;;;;;31.33;20.42;;;20.50;99.90;;;;;;5066522;28;20585;-56
2022/08/26 03:07:13;;;;;;;32.90;20.90;;;20.50;99.90;;;;;;5066762;28;20449;-57
2022/08/26 03:09:39;;;;;;;30.52;19.60;;;20.50;99.90;;;;;;5066409;28;20055;-60
2022/08/26 03:12:05;;;;;;;33.75;20.88;;;20.50;99.90;;;;;;5066396;28;20049;-57
2022/08/26 03:14:31;;;;;;;32.65;20.65;;;20.50;99.90;;;;;;5066124;28;20060;-61
2022/08/26 03:16:57;;;;;;;30.63;18.73;;;20.50;99.90;;;;;;5066249;28;20068;-56
2022/08/26 03:19:24;;;;;;;28.92;21.58;;;20.50;99.90;;;;;;5049777;28;20048;-56
2022/08/26 03:21:52;;;;;;;47.05;21.73;;;20.50;99.90;;;;;;5046243;28;20052;-55
2022/08/26 03:24:19;;;;;;;35.63;20.38;;;20.50;99.90;;;;;;5063198;28;20388;-56
2022/08/26 03:26:45;;;;;;;34.75;21.42;;;20.50;99.90;;;;;;5066346;28;20053;-55
2022/08/26 03:31:55;;;;;;;30.50;20.25;;;20.50;99.90;;;;;;5066173;28;20127;-57
2022/08/26 03:34:22;;;;;;;29.65;18.08;;;20.50;99.90;;;;;;5064810;28;20123;-55
2022/08/26 03:36:48;;;;;;;28.25;17.48;;;20.50;99.90;;;;;;5075915;28;20036;-56
2022/08/26 03:39:14;;;;;;;28.80;18.05;;;20.50;99.90;;;;;;5067885;28;20056;-55
2022/08/26 03:41:40;;;;;;;36.17;18.40;;;20.50;99.90;;;;;;5070240;28;20064;-56
2022/08/26 03:44:10;;;;;;;32.50;20.25;;;20.50;99.90;;;;;;5069999;28;20048;-61
2022/08/26 03:46:37;;;;;;;30.83;19.33;;;20.60;99.90;;;;;;5069625;28;20495;-61
2022/08/26 03:49:04;;;;;;;31.58;18.05;;;20.60;99.90;;;;;;5069975;28;20126;-55
2022/08/26 03:51:31;;;;;;;36.92;21.45;;;20.50;99.90;;;;;;5069304;28;20135;-58
2022/08/26 03:53:59;;;;;;;29.65;17.42;;;20.60;99.90;;;;;;5069872;28;20048;-56
2022/08/26 03:56:26;;;;;;;31.30;19.45;;;20.60;99.90;;;;;;5068271;28;20132;-58
2022/08/26 03:58:52;;;;;;;26.30;19.00;;;20.50;99.90;;;;;;5068188;28;20052;-57
2022/08/26 04:01:18;;;;;;;26.23;17.33;;;20.50;99.90;;;;;;5069966;28;20051;-55
2022/08/26 04:03:56;;;;;;;33.53;18.63;;;20.50;99.90;;;;;;5067409;28;20045;-57
2022/08/26 04:06:43;;;;;;;26.13;15.93;;;20.60;99.90;;;;;;5069182;28;20051;-56
2022/08/26 04:09:16;;;;;;;26.88;16.08;;;20.60;99.90;;;;;;5069082;28;20059;-57
2022/08/26 04:11:44;;;;;;;22.17;14.63;;;20.60;99.90;;;;;;5069296;28;20056;-56
2022/08/26 04:14:15;;;;;;;23.17;15.20;;;20.50;99.90;;;;;;5069187;28;20056;-55
2022/08/26 04:16:42;;;;;;;26.60;15.88;;;20.50;99.90;;;;;;5069665;28;20067;-56
2022/08/26 04:19:09;;;;;;;24.27;15.38;;;20.50;99.90;;;;;;5052947;28;20129;-55
2022/08/26 04:21:37;;;;;;;23.80;14.43;;;20.50;99.90;;;;;;5049351;28;20135;-55
2022/08/26 04:24:07;;;;;;;26.48;15.32;;;20.50;99.90;;;;;;5064327;28;20049;-55
2022/08/26 04:26:36;;;;;;;24.08;14.27;;;20.50;99.90;;;;;;5069313;28;20067;-56
2022/08/26 04:29:05;;;;;;;22.45;14.20;;;20.50;99.90;;;;;;5067563;28;20468;-55
2022/08/26 04:31:33;;;;;;;25.45;12.95;;;20.50;99.90;;;;;;5068916;28;20056;-56
2022/08/26 04:33:59;;;;;;;25.92;14.88;;;20.50;99.90;;;;;;5068888;28;20090;-56
2022/08/26 04:36:24;;;;;;;24.13;15.38;;;20.50;99.90;;;;;;5079348;28;20048;-56
2022/08/26 04:38:50;;;;;;;24.15;13.75;;;20.50;99.90;;;;;;5066670;28;20036;-56
2022/08/26 04:41:17;;;;;;;27.65;15.43;;;20.50;99.90;;;;;;5068510;28;20049;-56
2022/08/26 04:43:44;;;;;;;26.75;16.30;;;20.50;99.90;;;;;;5068231;28;20048;-57
2022/08/26 04:46:10;;;;;;;25.08;14.65;;;20.50;99.90;;;;;;5068298;28;20051;-57
2022/08/26 04:48:36;;;;;;;25.75;13.48;;;20.50;99.90;;;;;;5067163;28;20546;-55
2022/08/26 04:51:03;;;;;;;22.50;13.13;;;20.50;99.90;;;;;;5068654;28;20041;-55
2022/08/26 04:53:30;;;;;;;21.90;14.05;;;20.50;99.90;;;;;;5067033;28;20462;-56
2022/08/26 04:55:55;;;;;;;23.35;13.18;;;20.50;99.90;;;;;;5068461;28;20509;-55
2022/08/26 04:58:23;;;;;;;20.38;12.70;;;20.60;99.90;;;;;;5068719;28;20052;-56
2022/08/26 05:00:51;;;;;;;20.02;14.13;;;20.50;99.90;;;;;;5068415;28;20048;-56
2022/08/26 05:03:18;;;;;;;24.52;13.95;;;20.50;99.90;;;;;;5067712;28;20040;-57
2022/08/26 05:05:46;;;;;;;18.70;13.15;;;20.50;99.90;;;;;;5068225;28;20063;-57
2022/08/26 05:08:13;;;;;;;30.45;16.65;;;20.60;99.90;;;;;;5068395;28;20063;-57
2022/08/26 05:10:47;;;;;;;21.60;14.77;;;20.60;99.90;;;;;;5068367;28;20478;-57
2022/08/26 05:13:15;;;;;;;29.23;15.48;;;20.60;99.90;;;;;;5068090;28;20056;-57
2022/08/26 05:15:41;;;;;;;22.48;13.82;;;20.60;99.90;;;;;;5067198;28;20384;-58
2022/08/26 05:18:07;;;;;;;25.65;15.68;;;20.50;99.90;;;;;;5061977;28;20502;-57
2022/08/26 05:20:45;;;;;;;28.27;15.05;;;20.50;99.90;;;;;;5060127;28;20507;-58
2022/08/26 05:23:11;;;;;;;20.48;14.40;;;20.60;99.90;;;;;;5067825;28;20123;-56
2022/08/26 05:25:40;;;;;;;26.95;15.00;;;20.60;99.90;;;;;;5067912;28;20510;-58
2022/08/26 05:28:07;;;;;;;23.38;14.73;;;20.60;99.90;;;;;;5068329;28;20119;-55
2022/08/26 05:30:33;;;;;;;22.45;15.25;;;20.50;99.90;;;;;;5067618;28;20395;-58
2022/08/26 05:32:58;;;;;;;23.35;12.95;;;20.50;99.90;;;;;;5068010;28;20051;-58
2022/08/26 05:35:32;;;;;;;24.58;12.00;;;20.60;99.90;;;;;;5075331;28;20059;-58
2022/08/26 05:37:59;;;;;;;;;;;20.60;99.90;;;;;;5069660;28;20052;-57
2022/08/26 05:40:25;;;;;;;27.65;14.50;;;20.60;99.90;;;;;;5067964;28;19960;-57
2022/08/26 05:42:51;;;;;;;21.83;15.45;;;20.60;99.90;;;;;;5067330;28;20123;-57
2022/08/26 05:45:18;;;;;;;20.80;14.82;;;20.70;99.90;;;;;;5067685;28;20071;-58
2022/08/26 05:47:44;;;;;;;21.75;14.15;;;20.60;99.90;;;;;;5067413;28;20060;-55
2022/08/26 05:50:10;;;;;;;21.90;14.65;;;20.70;99.90;;;;;;5067161;28;20049;-55
2022/08/26 05:52:36;;;;;;;26.98;14.73;;;20.70;99.90;;;;;;5067322;28;20056;-55
2022/08/26 05:55:03;;;;;;;27.85;15.30;;;20.70;99.90;;;;;;5062778;28;20044;-55
2022/08/26 05:57:29;;;;;;;25.13;15.98;;;20.70;99.90;;;;;;5047339;28;20156;-55
2022/08/26 05:59:55;;;;;;;28.30;15.43;;;20.80;99.90;;;;;;5045958;28;20144;-56
2022/08/26 06:02:21;;;;;;;31.08;17.15;;;20.80;99.90;;;;;;5046587;28;20407;-55
2022/08/26 06:04:47;;;;;;;27.75;16.80;;;20.80;99.90;;;;;;5045377;28;20060;-55
2022/08/26 06:07:12;;;;;;;28.85;17.20;;;20.80;99.90;;;;;;5055899;28;20056;-55
2022/08/26 06:09:38;;;;;;;26.08;16.55;;;20.80;99.90;;;;;;5066739;28;20132;-55
2022/08/26 06:12:05;;;;;;;27.08;15.20;;;20.80;99.90;;;;;;5065908;28;20049;-56
2022/08/26 06:14:31;;;;;;;25.38;16.90;;;20.80;99.90;;;;;;5065799;28;20526;-55
2022/08/26 06:16:56;;;;;;;25.05;14.63;;;20.80;99.90;;;;;;5066792;28;20052;-56
2022/08/26 06:19:22;;;;;;;21.95;14.18;;;21.00;99.90;;;;;;5048013;28;20459;-56
2022/08/26 06:21:50;;;;;;;24.63;14.18;;;21.10;99.90;;;;;;5045375;28;20405;-59
2022/08/26 06:27:08;;;;;;;27.65;15.00;;;21.20;99.90;;;;;;5066744;28;20349;-58
2022/08/26 06:29:35;;;;;;;30.20;15.20;;;21.10;99.90;;;;;;5066535;28;20045;-59
2022/08/26 06:32:02;;;;;;;26.17;13.60;;;21.20;99.90;;;;;;5066966;28;20044;-56
2022/08/26 06:34:28;;;;;;;22.17;12.80;;;21.20;99.90;;;;;;5067077;28;20525;-58
2022/08/26 06:36:57;;;;;;;22.00;13.43;;;21.10;99.90;;;;;;5056581;28;20191;-58
2022/08/26 06:39:22;;;;;;;20.70;12.73;;;21.10;99.90;;;;;;5066660;28;20044;-55
2022/08/26 06:41:49;;;;;;;24.20;13.35;;;21.20;99.90;;;;;;5063637;28;20562;-56
2022/08/26 06:44:16;;;;;;;22.52;12.40;;;21.00;99.90;;;;;;5065095;28;20475;-56
2022/08/26 06:46:42;;;;;;;24.63;12.30;;;21.40;99.90;;;;;;5066394;28;20045;-56
2022/08/26 06:49:08;;;;;;;22.48;12.10;;;21.40;99.90;;;;;;5065056;28;20470;-56
2022/08/26 06:51:36;;;;;;;22.48;12.05;;;21.40;99.90;;;;;;5066439;28;20071;-55
2022/08/26 06:54:03;;;;;;;23.75;11.52;;;21.50;99.90;;;;;;5060986;28;20059;-56
2022/08/26 06:56:37;;;;;;;21.52;12.02;;;21.60;99.90;;;;;;5057143;28;20471;-56
2022/08/26 06:59:04;;;;;;;19.63;12.38;;;21.50;99.90;;;;;;5046184;28;20083;-56
2022/08/26 07:01:33;;;;;;;19.73;12.48;;;21.50;99.90;;;;;;5055681;28;20076;-58
2022/08/26 07:04:02;;;;;;;23.50;11.15;;;21.50;99.90;;;;;;5064416;28;20060;-56
2022/08/26 07:06:29;;;;;;;18.92;11.45;;;21.60;99.90;;;;;;5063157;28;20106;-59
2022/08/26 07:09:01;;;;;;;18.10;11.10;;;21.80;99.90;;;;;;5063227;28;20056;-59
2022/08/26 07:11:27;;;;;;;17.27;10.80;;;21.80;99.90;;;;;;5064240;28;20055;-61
2022/08/26 07:13:53;;;;;;;17.83;10.25;;;21.80;99.90;;;;;;5065063;28;20052;-57
2022/08/26 07:16:19;;;;;;;18.50;10.75;;;21.80;99.90;;;;;;5068097;28;20067;-59
2022/08/26 07:18:45;;;;;;;24.40;11.70;;;21.90;99.90;;;;;;5068202;28;20051;-59
2022/08/26 07:21:13;;;;;;;20.17;9.75;;;21.80;99.90;;;;;;5067656;28;20407;-56
2022/08/26 07:23:39;;;;;;;24.75;11.02;;;21.80;99.90;;;;;;5067747;28;20059;-60
2022/08/26 07:26:11;;;;;;;16.80;8.25;;;21.80;99.90;;;;;;5068130;28;20048;-56
2022/08/26 07:28:38;;;;;;;15.13;8.40;;;21.90;99.90;;;;;;5066717;28;20193;-57
2022/08/26 07:31:09;;;;;;;17.98;10.35;;;21.80;99.90;;;;;;5066913;28;20402;-61
2022/08/26 07:33:37;;;;;;;21.08;9.70;;;21.80;99.90;;;;;;5067386;28;20498;-58
2022/08/26 07:36:04;;;;;;;18.63;8.75;;;21.80;99.90;;;;;;5078119;28;20048;-55
2022/08/26 07:38:30;;;;;;;16.42;8.82;;;21.80;99.90;;;;;;5067444;28;20051;-56
2022/08/26 07:40:56;;;;;;;22.00;9.45;;;21.70;99.90;;;;;;5065841;28;20066;-56
2022/08/26 07:43:21;;;;;;;18.60;9.70;;;21.70;99.90;;;;;;5067674;28;20494;-56
2022/08/26 07:45:48;;;;;;;19.40;8.52;;;21.50;99.90;;;;;;5065843;28;20106;-60
2022/08/26 07:48:13;;;;;;;18.23;9.00;;;21.80;99.90;;;;;;5061352;28;20048;-56
2022/08/26 07:50:40;;;;;;;14.40;8.30;;;22.00;99.90;;;;;;5051807;28;20044;-55
2022/08/26 07:53:06;;;;;;;12.73;8.13;;;21.90;99.90;;;;;;5047780;28;20055;-55
2022/08/26 07:55:32;;;;;;;19.33;10.55;;;22.00;99.90;;;;;;5046276;28;20041;-55
2022/08/26 07:57:58;;;;;;;15.25;8.63;;;22.00;99.90;;;;;;5046846;28;20037;-55
2022/08/26 08:00:24;;;;;;;18.35;8.80;;;21.90;99.90;;;;;;5045884;28;20037;-57
2022/08/26 08:02:50;;;;;;;19.33;8.43;;;21.90;99.90;;;;;;5046746;28;20048;-57
2022/08/26 08:05:19;;;;;;;15.95;8.32;;;22.20;99.90;;;;;;5047617;28;20044;-56
2022/08/26 08:07:44;;;;;;;17.10;7.55;;;22.40;99.90;;;;;;5049836;28;20048;-55
2022/08/26 08:10:14;;;;;;;11.88;6.78;;;22.60;99.90;;;;;;5066631;28;20054;-56
2022/08/26 08:12:41;;;;;;;15.50;6.53;;;22.30;99.90;;;;;;5061391;28;20048;-56
2022/08/26 08:15:08;;;;;;;13.00;6.53;;;22.50;99.90;;;;;;5055783;28;20064;-56
2022/08/26 08:17:34;;;;;;;14.65;6.80;;;22.50;99.90;;;;;;5054884;28;20052;-58
2022/08/26 08:20:01;;;;;;;13.23;7.10;;;22.20;99.90;;;;;;5063944;28;20048;-57
2022/08/26 08:22:27;;;;;;;11.52;6.03;;;22.10;99.90;;;;;;5065506;28;20134;-57
2022/08/26 08:24:53;;;;;;;12.57;7.13;;;22.10;99.90;;;;;;5064084;28;20123;-57
2022/08/26 08:27:19;;;;;;;11.70;7.65;;;22.00;99.90;;;;;;5081155;28;20361;-57
2022/08/26 08:29:46;;;;;;;10.20;6.13;;;22.00;99.90;;;;;;5066033;28;20132;-56
2022/08/26 08:32:12;;;;;;;18.10;6.43;;;21.90;99.90;;;;;;5065740;28;20052;-57
2022/08/26 08:34:38;;;;;;;13.80;5.63;;;21.80;99.90;;;;;;5065475;28;20060;-57
2022/08/26 08:37:05;;;;;;;14.68;5.57;;;21.70;99.90;;;;;;5064582;28;20055;-58
2022/08/26 08:39:31;;;;;;;7.88;5.22;;;21.90;99.90;;;;;;5065442;28;20048;-56
2022/08/26 08:42:09;;;;;;;11.63;5.30;;;21.70;99.90;;;;;;5065646;28;20050;-61
2022/08/26 08:44:40;;;;;;;11.68;5.30;;;21.90;99.90;;;;;;5065556;28;20098;-58
2022/08/26 08:47:24;;;;;;;14.20;5.95;;;21.90;99.90;;;;;;5065614;28;20044;-57
2022/08/26 08:49:53;;;;;;;12.57;6.00;;;22.00;99.90;;;;;;5064496;28;20052;-57
2022/08/26 08:52:35;;;;;;;7.38;5.07;;;22.30;99.90;;;;;;5065356;28;20054;-57
2022/08/26 08:55:04;;;;;;;17.92;5.55;;;22.40;99.90;;;;;;5063173;28;20048;-57
2022/08/26 08:58:09;;;;;;;7.15;4.35;;;22.30;99.90;;;;;;5063703;28;20093;-56
2022/08/26 09:01:13;;;;;;;9.00;3.88;;;22.50;99.90;;;;;;5044587;28;20059;-56
2022/08/26 09:04:13;;;;;;;9.07;3.92;;;22.30;99.90;;;;;;5019914;28;20475;-56
2022/08/26 09:06:40;;;;;;;10.63;4.78;;;22.50;99.90;;;;;;5039719;28;20512;-56
2022/08/26 09:09:06;;;;;;;5.90;3.88;;;22.70;99.90;;;;;;5065073;28;20044;-57
2022/08/26 09:11:34;;;;;;;10.98;3.60;;;23.00;99.90;;;;;;5062813;28;20048;-56
2022/08/26 09:14:00;;;;;;;6.38;3.65;;;23.10;99.90;;;;;;5052300;28;20072;-57
2022/08/26 09:17:01;;;;;;;6.60;2.58;;;23.30;99.90;;;;;;5044422;28;20053;-56
2022/08/26 09:19:41;;;;;;;7.45;2.90;;;23.40;99.90;;;;;;5007733;28;20065;-57
2022/08/26 09:22:07;;;;;;;8.05;2.90;;;23.30;99.90;;;;;;5064697;28;20072;-56
2022/08/26 09:24:36;;;;;;;5.15;2.25;;;22.90;99.90;;;;;;5063401;28;20392;-57
2022/08/26 09:27:02;;;;;;;5.43;2.47;;;22.80;99.90;;;;;;5064606;28;20055;-58
2022/08/26 09:29:41;;;;;;;7.15;3.40;;;22.90;99.90;;;;;;5064517;28;20044;-58
2022/08/26 09:32:24;;;;;;;7.50;2.85;;;22.70;99.90;;;;;;5064709;28;20044;-55
2022/08/26 09:34:54;;;;;;;7.72;2.30;;;22.80;99.90;;;;;;5067332;28;20112;-57
2022/08/26 09:37:37;;;;;;;6.10;2.03;;;22.90;99.90;;;;;;5069212;28;20048;-57
2022/08/26 09:40:17;;;;;;;7.93;2.58;;;22.70;99.90;;;;;;5064153;28;20124;-58
2022/08/26 09:42:43;;;;;;;5.72;2.28;;;22.60;99.90;;;;;;5064264;28;20394;-57
2022/08/26 09:45:11;;;;;;;5.75;2.50;;;22.60;99.90;;;;;;5062259;28;20436;-56
2022/08/26 09:47:56;;;;;;;4.78;1.77;;;22.20;99.90;;;;;;5063054;28;20397;-57
2022/08/26 09:50:35;;;;;;;4.93;2.10;;;22.20;99.90;;;;;;5063518;28;20049;-55
2022/08/26 09:53:05;;;;;;;8.40;1.95;;;22.00;99.90;;;;;;5062800;28;20052;-57
2022/08/26 09:55:31;;;;;;;5.55;3.08;;;21.90;99.90;;;;;;5063599;28;20051;-55
2022/08/26 09:57:57;;;;;;;5.85;2.35;;;21.80;99.90;;;;;;5063737;28;20048;-57
2022/08/26 10:00:29;;;;;;;9.35;2.80;;;21.90;99.90;;;;;;5063710;28;20490;-57
2022/08/26 10:02:59;;;;;;;7.07;2.40;;;21.80;99.90;;;;;;5063398;28;20564;-55
2022/08/26 10:05:52;;;;;;;4.88;1.92;;;21.70;99.90;;;;;;5064251;28;20044;-57
2022/08/26 10:08:36;;;;;;;6.30;1.67;;;21.70;99.90;;;;;;5042794;28;20067;-58
2022/08/26 10:11:15;;;;;;;5.65;2.50;;;21.80;99.90;;;;;;5043662;28;20114;-57
2022/08/26 10:13:47;;;;;;;4.28;2.05;;;21.80;99.90;;;;;;5043518;28;20464;-57
2022/08/26 10:16:58;;;;;;;4.05;2.00;;;21.80;99.90;;;;;;5043824;28;20053;-57
2022/08/26 10:19:32;;;;;;;7.47;3.05;;;21.90;99.90;;;;;;5060979;28;20062;-55
2022/08/26 10:22:36;;;;;;;10.90;2.50;;;21.90;99.90;;;;;;5063467;28;20170;-57
2022/08/26 10:25:06;;;;;;;5.13;2.05;;;21.90;99.90;;;;;;5014620;28;20163;-57
2022/08/26 10:27:45;;;;;;;6.18;2.10;;;22.00;99.90;;;;;;5041797;28;20080;-55
2022/08/26 10:30:18;;;;;;;3.70;2.13;;;21.80;99.90;;;;;;5043522;28;20057;-55
2022/08/26 10:32:59;;;;;;;4.32;2.50;;;21.60;99.90;;;;;;5043880;28;20041;-55
2022/08/26 10:35:26;;;;;;;9.43;2.25;;;21.80;99.90;;;;;;5054074;28;20052;-56
2022/08/26 10:38:00;;;;;;;11.68;3.03;;;21.90;99.90;;;;;;5045225;28;20037;-58
2022/08/26 10:40:34;;;;;;;10.52;3.22;;;22.20;99.90;;;;;;5043608;28;20053;-56
2022/08/26 10:43:02;;;;;;;3.47;1.95;;;22.30;99.90;;;;;;5043749;28;20052;-55
2022/08/26 10:45:42;;;;;;;9.45;2.90;;;22.60;99.90;;;;;;5043096;28;20044;-55
2022/08/26 10:48:21;;;;;;;7.75;2.78;;;23.30;99.90;;;;;;5043326;28;20583;-56
2022/08/26 10:50:48;;;;;;;11.63;3.10;;;23.30;99.90;;;;;;5043711;28;20371;-56
2022/08/26 10:53:21;;;;;;;7.63;2.80;;;23.40;99.90;;;;;;5043671;28;20095;-55
2022/08/26 10:55:53;;;;;;;7.43;2.72;;;23.60;99.90;;;;;;5043793;28;20049;-56
2022/08/26 10:58:33;;;;;;;4.97;2.47;;;23.60;99.90;;;;;;5054707;28;20055;-55
2022/08/26 11:04:20;;;;;;;5.88;2.10;;;23.60;99.90;;;;;;5062875;28;20398;-56
2022/08/26 11:06:46;;;;;;;9.07;3.53;;;24.30;99.90;;;;;;5062821;28;20458;-56
2022/08/26 11:09:44;;;;;;;5.68;3.13;;;23.80;99.90;;;;;;5062893;28;20139;-57
2022/08/26 11:12:35;;;;;;;4.88;3.10;;;24.30;99.90;;;;;;5042367;28;20052;-57
2022/08/26 11:15:04;;;;;;;5.63;2.65;;;24.20;99.90;;;;;;5042935;28;20060;-55
2022/08/26 11:17:44;;;;;;;9.05;3.35;;;23.60;99.90;;;;;;5043975;28;20052;-58
2022/08/26 11:20:22;;;;;;;11.23;3.33;;;23.70;99.90;;;;;;5062656;28;20470;-55
2022/08/26 11:22:53;;;;;;;8.13;3.08;;;23.30;99.90;;;;;;5062833;28;20040;-55
2022/08/26 11:25:23;;;;;;;7.38;3.15;;;23.50;99.90;;;;;;5062858;28;20050;-56
2022/08/26 11:27:51;;;;;;;5.93;2.65;;;23.40;99.90;;;;;;5062769;28;20056;-56
2022/08/26 11:30:18;;;;;;;5.95;2.38;;;23.40;99.90;;;;;;5062859;28;20059;-60
2022/08/26 11:32:47;;;;;;;10.93;3.90;;;23.40;99.90;;;;;;5063258;28;20052;-58
2022/08/26 11:35:35;;;;;;;7.60;3.13;;;23.50;99.90;;;;;;5057797;28;20543;-56
2022/08/26 11:38:03;;;;;;;11.43;3.15;;;23.30;99.90;;;;;;5046055;28;20048;-58
2022/08/26 11:40:33;;;;;;;5.63;2.80;;;23.40;99.90;;;;;;5062035;28;20048;-58
2022/08/26 11:43:22;;;;;;;7.07;3.65;;;23.40;99.90;;;;;;5063586;28;20048;-57
2022/08/26 11:46:02;;;;;;;9.38;3.13;;;23.10;99.90;;;;;;5045104;28;20083;-61
2022/08/26 11:48:32;;;;;;;7.75;2.55;;;23.20;99.90;;;;;;5062327;28;20056;-58
2022/08/26 11:51:07;;;;;;;5.97;2.70;;;23.10;99.90;;;;;;5062928;28;20093;-58
2022/08/26 11:53:37;;;;;;;5.07;3.08;;;23.30;99.90;;;;;;5050345;28;20048;-58
2022/08/26 11:56:09;;;;;;;7.80;3.15;;;22.90;99.90;;;;;;5052840;28;20041;-56
2022/08/26 11:58:43;;;;;;;6.53;2.50;;;23.00;99.90;;;;;;5042868;28;20065;-56
2022/08/26 12:01:12;;;;;;;7.32;2.42;;;23.10;99.90;;;;;;5047970;28;20545;-57
2022/08/26 12:03:45;;;;;;;9.15;2.50;;;23.00;99.90;;;;;;5046659;28;20154;-56
2022/08/26 12:06:22;;;;;;;7.38;2.60;;;22.90;99.90;;;;;;5047083;28;20495;-55
2022/08/26 12:08:48;;;;;;;6.25;2.63;;;22.70;99.90;;;;;;5064996;28;20273;-57
2022/08/26 12:11:24;;;;;;;9.45;2.72;;;23.00;99.90;;;;;;5056993;28;20051;-58
2022/08/26 12:14:01;;;;;;;10.68;3.10;;;23.00;99.90;;;;;;5056962;28;20053;-58
2022/08/26 12:16:30;;;;;;;8.60;3.45;;;23.60;99.90;;;;;;5050995;28;20052;-57
2022/08/26 12:18:57;;;;;;;6.40;2.33;;;23.60;99.90;;;;;;5050247;28;20045;-58
2022/08/26 12:21:29;;;;;;;8.02;2.55;;;23.20;99.90;;;;;;5055647;28;20041;-58
2022/08/26 12:23:59;;;;;;;5.07;2.15;;;23.50;99.90;;;;;;5062425;28;20052;-58
2022/08/26 12:26:29;;;;;;;6.82;2.30;;;23.60;99.90;;;;;;5051376;28;20045;-57
2022/08/26 12:29:26;;;;;;;5.18;2.15;;;23.80;99.90;;;;;;5045143;28;20057;-55
2022/08/26 12:32:16;;;;;;;6.65;2.05;;;23.80;99.90;;;;;;5036940;28;20138;-56
2022/08/26 12:34:46;;;;;;;7.72;3.13;;;23.40;99.90;;;;;;5049993;28;20059;-55
2022/08/26 12:37:13;;;;;;;5.00;3.03;;;23.00;99.90;;;;;;5058919;28;20048;-56
2022/08/26 12:39:43;;;;;;;4.35;2.58;;;22.80;99.90;;;;;;5046176;28;20162;-57
2022/08/26 12:42:12;;;;;;;6.50;2.15;;;22.70;99.90;;;;;;5044271;28;20389;-55
2022/08/26 12:44:45;;;;;;;7.32;2.70;;;22.40;99.90;;;;;;5045836;28;20048;-58
2022/08/26 12:47:23;;;;;;;7.80;2.30;;;22.30;99.90;;;;;;5044112;28;20110;-56
2022/08/26 12:50:03;;;;;;;6.18;2.28;;;22.00;99.90;;;;;;5044869;28;20498;-55
2022/08/26 12:52:32;;;;;;;5.07;1.60;;;21.80;99.90;;;;;;5045188;28;20044;-56
2022/08/26 12:55:16;;;;;;;4.30;2.00;;;21.70;99.90;;;;;;5044119;28;20376;-57
2022/08/26 12:57:42;;;;;;;8.43;2.03;;;21.70;99.90;;;;;;5043498;28;20041;-55
2022/08/26 13:00:33;;;;;;;3.40;1.70;;;21.50;99.90;;;;;;5043120;28;20763;-59